Shurdington, United Kingdom
Current Conditions -  °F | °C
As of 2:20 PM on Tuesday 21 Oct 2014 (Local Time) from EGBJ Reporting Station
Rain Showers Rain Showers  
Wind Chill: 55°   Ceiling: Unl
Heat Index: 55°   Visibility: 6mi
Dew Point: 43°   Wind: 22mph
Humidity: 63%   Direction: 280°W
Pressure: 29.83"   Gusts: 40mph
Location:  51.86°N, 2.12°W
Report Text: EGBJ 211320Z 28019G35KT 240V310 9999 VCSH FEW028 13/06 Q1010
Loading
Personal Weather Stations






























Interactive Weather Map
Tropical Storm Tracking
New forecast layout! Learn more

10-Day Weather Forecast

Advertisements
Track Severe Weather on mobile